sensor_id;sensor_type;location;lat;lon;timestamp;P1;durP1;ratioP1;P2;durP2;ratioP2
46723;SDS011;32463;48.298;11.620;2023-06-22T00:00:57;10.88;;;6.28;;
46723;SDS011;32463;48.298;11.620;2023-06-22T00:03:25;10.00;;;5.53;;
46723;SDS011;32463;48.298;11.620;2023-06-22T00:05:52;11.25;;;5.65;;
46723;SDS011;32463;48.298;11.620;2023-06-22T00:08:19;11.00;;;5.60;;
46723;SDS011;32463;48.298;11.620;2023-06-22T00:10:46;10.45;;;6.20;;
46723;SDS011;32463;48.298;11.620;2023-06-22T00:13:13;16.08;;;6.10;;
46723;SDS011;32463;48.298;11.620;2023-06-22T00:15:41;9.65;;;5.65;;
46723;SDS011;32463;48.298;11.620;2023-06-22T00:18:08;10.98;;;5.72;;
46723;SDS011;32463;48.298;11.620;2023-06-22T00:20:35;11.50;;;5.35;;
46723;SDS011;32463;48.298;11.620;2023-06-22T00:23:03;13.00;;;5.95;;
46723;SDS011;32463;48.298;11.620;2023-06-22T00:25:37;10.43;;;6.03;;
46723;SDS011;32463;48.298;11.620;2023-06-22T00:28:05;12.68;;;5.30;;
46723;SDS011;32463;48.298;11.620;2023-06-22T00:30:33;12.18;;;5.70;;
46723;SDS011;32463;48.298;11.620;2023-06-22T00:33:00;9.07;;;5.65;;
46723;SDS011;32463;48.298;11.620;2023-06-22T00:35:27;8.95;;;5.10;;
46723;SDS011;32463;48.298;11.620;2023-06-22T00:37:57;10.25;;;5.95;;
46723;SDS011;32463;48.298;11.620;2023-06-22T00:40:29;10.32;;;5.85;;
46723;SDS011;32463;48.298;11.620;2023-06-22T00:42:57;13.38;;;5.53;;
46723;SDS011;32463;48.298;11.620;2023-06-22T00:45:24;8.30;;;5.20;;
46723;SDS011;32463;48.298;11.620;2023-06-22T00:47:51;13.00;;;5.60;;
46723;SDS011;32463;48.298;11.620;2023-06-22T00:50:20;14.93;;;5.20;;
46723;SDS011;32463;48.298;11.620;2023-06-22T00:52:49;12.07;;;5.47;;
46723;SDS011;32463;48.298;11.620;2023-06-22T00:55:18;11.85;;;5.30;;
46723;SDS011;32463;48.298;11.620;2023-06-22T00:57:46;11.57;;;5.32;;
46723;SDS011;32463;48.298;11.620;2023-06-22T01:00:14;9.27;;;5.05;;
46723;SDS011;32463;48.298;11.620;2023-06-22T01:02:43;11.05;;;5.30;;
46723;SDS011;32463;48.298;11.620;2023-06-22T01:05:12;13.05;;;5.32;;
46723;SDS011;32463;48.298;11.620;2023-06-22T01:12:42;12.30;;;5.28;;
46723;SDS011;32463;48.298;11.620;2023-06-22T01:15:16;12.90;;;5.43;;
46723;SDS011;32463;48.298;11.620;2023-06-22T01:17:47;12.90;;;5.35;;
46723;SDS011;32463;48.298;11.620;2023-06-22T01:20:15;12.27;;;5.80;;
46723;SDS011;32463;48.298;11.620;2023-06-22T01:25:31;10.63;;;5.40;;
46723;SDS011;32463;48.298;11.620;2023-06-22T01:30:51;12.25;;;6.18;;
46723;SDS011;32463;48.298;11.620;2023-06-22T01:33:29;9.55;;;5.05;;
46723;SDS011;32463;48.298;11.620;2023-06-22T01:35:57;11.52;;;5.03;;
46723;SDS011;32463;48.298;11.620;2023-06-22T01:38:25;8.80;;;5.00;;
46723;SDS011;32463;48.298;11.620;2023-06-22T01:40:53;11.30;;;5.38;;
46723;SDS011;32463;48.298;11.620;2023-06-22T01:43:21;8.50;;;5.18;;
46723;SDS011;32463;48.298;11.620;2023-06-22T01:45:50;11.48;;;5.85;;
46723;SDS011;32463;48.298;11.620;2023-06-22T01:48:17;14.50;;;5.90;;
46723;SDS011;32463;48.298;11.620;2023-06-22T01:50:45;10.88;;;6.45;;
46723;SDS011;32463;48.298;11.620;2023-06-22T01:53:12;14.20;;;5.72;;
46723;SDS011;32463;48.298;11.620;2023-06-22T01:55:38;13.70;;;6.05;;
46723;SDS011;32463;48.298;11.620;2023-06-22T01:58:04;15.00;;;5.90;;
46723;SDS011;32463;48.298;11.620;2023-06-22T02:00:31;11.60;;;5.75;;
46723;SDS011;32463;48.298;11.620;2023-06-22T02:03:05;10.90;;;6.10;;
46723;SDS011;32463;48.298;11.620;2023-06-22T02:05:37;11.77;;;5.78;;
46723;SDS011;32463;48.298;11.620;2023-06-22T02:08:10;10.20;;;5.40;;
46723;SDS011;32463;48.298;11.620;2023-06-22T02:10:41;17.50;;;6.70;;
46723;SDS011;32463;48.298;11.620;2023-06-22T02:13:10;8.68;;;5.70;;
46723;SDS011;32463;48.298;11.620;2023-06-22T02:15:37;13.45;;;5.75;;
46723;SDS011;32463;48.298;11.620;2023-06-22T02:18:04;10.00;;;5.55;;
46723;SDS011;32463;48.298;11.620;2023-06-22T02:20:31;13.75;;;5.38;;
46723;SDS011;32463;48.298;11.620;2023-06-22T02:22:57;11.00;;;5.38;;
46723;SDS011;32463;48.298;11.620;2023-06-22T02:25:24;11.00;;;5.40;;
46723;SDS011;32463;48.298;11.620;2023-06-22T02:27:50;10.52;;;5.22;;
46723;SDS011;32463;48.298;11.620;2023-06-22T02:30:17;14.18;;;5.68;;
46723;SDS011;32463;48.298;11.620;2023-06-22T02:32:43;10.93;;;5.03;;
46723;SDS011;32463;48.298;11.620;2023-06-22T02:35:10;9.25;;;5.40;;
46723;SDS011;32463;48.298;11.620;2023-06-22T02:37:37;10.05;;;5.55;;
46723;SDS011;32463;48.298;11.620;2023-06-22T02:40:06;11.30;;;6.05;;
46723;SDS011;32463;48.298;11.620;2023-06-22T02:42:36;11.77;;;6.03;;
46723;SDS011;32463;48.298;11.620;2023-06-22T02:45:03;12.10;;;5.78;;
46723;SDS011;32463;48.298;11.620;2023-06-22T02:47:30;9.52;;;5.82;;
46723;SDS011;32463;48.298;11.620;2023-06-22T02:49:56;9.68;;;6.15;;
46723;SDS011;32463;48.298;11.620;2023-06-22T02:52:23;10.65;;;6.32;;
46723;SDS011;32463;48.298;11.620;2023-06-22T02:54:49;13.98;;;6.65;;
46723;SDS011;32463;48.298;11.620;2023-06-22T02:57:16;13.95;;;6.95;;
46723;SDS011;32463;48.298;11.620;2023-06-22T02:59:42;15.93;;;6.47;;
46723;SDS011;32463;48.298;11.620;2023-06-22T03:02:08;12.45;;;6.60;;
46723;SDS011;32463;48.298;11.620;2023-06-22T03:04:36;14.95;;;7.03;;
46723;SDS011;32463;48.298;11.620;2023-06-22T03:07:02;16.00;;;6.50;;
46723;SDS011;32463;48.298;11.620;2023-06-22T03:09:29;11.38;;;6.85;;
46723;SDS011;32463;48.298;11.620;2023-06-22T03:11:55;10.60;;;5.88;;
46723;SDS011;32463;48.298;11.620;2023-06-22T03:14:22;13.23;;;6.88;;
46723;SDS011;32463;48.298;11.620;2023-06-22T03:16:49;15.23;;;7.03;;
46723;SDS011;32463;48.298;11.620;2023-06-22T03:19:15;14.90;;;6.88;;
46723;SDS011;32463;48.298;11.620;2023-06-22T03:21:41;12.43;;;6.25;;
46723;SDS011;32463;48.298;11.620;2023-06-22T03:24:08;18.23;;;7.07;;
46723;SDS011;32463;48.298;11.620;2023-06-22T03:26:34;12.50;;;6.93;;
46723;SDS011;32463;48.298;11.620;2023-06-22T03:29:01;13.75;;;6.22;;
46723;SDS011;32463;48.298;11.620;2023-06-22T03:31:28;9.73;;;6.82;;
46723;SDS011;32463;48.298;11.620;2023-06-22T03:33:54;13.75;;;5.97;;
46723;SDS011;32463;48.298;11.620;2023-06-22T03:36:22;16.55;;;6.63;;
46723;SDS011;32463;48.298;11.620;2023-06-22T03:38:49;12.35;;;6.60;;
46723;SDS011;32463;48.298;11.620;2023-06-22T03:41:16;14.88;;;7.00;;
46723;SDS011;32463;48.298;11.620;2023-06-22T03:43:43;14.60;;;6.32;;
46723;SDS011;32463;48.298;11.620;2023-06-22T03:46:10;10.98;;;6.43;;
46723;SDS011;32463;48.298;11.620;2023-06-22T03:48:37;11.90;;;6.22;;
46723;SDS011;32463;48.298;11.620;2023-06-22T03:51:04;12.25;;;6.60;;
46723;SDS011;32463;48.298;11.620;2023-06-22T03:53:30;10.32;;;6.63;;
46723;SDS011;32463;48.298;11.620;2023-06-22T03:55:57;12.15;;;6.75;;
46723;SDS011;32463;48.298;11.620;2023-06-22T03:58:23;11.25;;;6.47;;
46723;SDS011;32463;48.298;11.620;2023-06-22T04:00:50;13.73;;;6.60;;
46723;SDS011;32463;48.298;11.620;2023-06-22T04:03:18;13.38;;;6.55;;
46723;SDS011;32463;48.298;11.620;2023-06-22T04:05:44;11.45;;;7.07;;
46723;SDS011;32463;48.298;11.620;2023-06-22T04:08:12;16.48;;;6.32;;
46723;SDS011;32463;48.298;11.620;2023-06-22T04:10:39;15.77;;;7.53;;
46723;SDS011;32463;48.298;11.620;2023-06-22T04:13:06;15.00;;;6.53;;
46723;SDS011;32463;48.298;11.620;2023-06-22T04:15:33;18.80;;;7.05;;
46723;SDS011;32463;48.298;11.620;2023-06-22T04:18:00;13.80;;;6.63;;
46723;SDS011;32463;48.298;11.620;2023-06-22T04:20:27;11.82;;;6.50;;
46723;SDS011;32463;48.298;11.620;2023-06-22T04:22:53;12.68;;;6.88;;
46723;SDS011;32463;48.298;11.620;2023-06-22T04:25:20;17.35;;;7.25;;
46723;SDS011;32463;48.298;11.620;2023-06-22T04:27:48;12.52;;;6.85;;
46723;SDS011;32463;48.298;11.620;2023-06-22T04:30:15;11.30;;;6.93;;
46723;SDS011;32463;48.298;11.620;2023-06-22T04:32:42;11.13;;;6.55;;
46723;SDS011;32463;48.298;11.620;2023-06-22T04:35:09;13.50;;;6.95;;
46723;SDS011;32463;48.298;11.620;2023-06-22T04:37:36;12.55;;;7.47;;
46723;SDS011;32463;48.298;11.620;2023-06-22T04:40:04;14.07;;;7.47;;
46723;SDS011;32463;48.298;11.620;2023-06-22T04:42:33;22.20;;;8.82;;
46723;SDS011;32463;48.298;11.620;2023-06-22T04:45:00;15.38;;;7.68;;
46723;SDS011;32463;48.298;11.620;2023-06-22T04:47:27;13.80;;;7.32;;
46723;SDS011;32463;48.298;11.620;2023-06-22T04:49:53;12.48;;;7.10;;
46723;SDS011;32463;48.298;11.620;2023-06-22T04:52:20;13.38;;;7.32;;
46723;SDS011;32463;48.298;11.620;2023-06-22T04:54:46;12.80;;;6.80;;
46723;SDS011;32463;48.298;11.620;2023-06-22T04:57:15;11.05;;;6.15;;
46723;SDS011;32463;48.298;11.620;2023-06-22T04:59:42;13.35;;;6.90;;
46723;SDS011;32463;48.298;11.620;2023-06-22T05:02:09;20.30;;;7.90;;
46723;SDS011;32463;48.298;11.620;2023-06-22T05:04:36;11.55;;;6.95;;
46723;SDS011;32463;48.298;11.620;2023-06-22T05:07:03;10.77;;;6.78;;
46723;SDS011;32463;48.298;11.620;2023-06-22T05:09:30;15.18;;;6.93;;
46723;SDS011;32463;48.298;11.620;2023-06-22T05:11:58;12.63;;;6.90;;
46723;SDS011;32463;48.298;11.620;2023-06-22T05:14:27;15.10;;;7.28;;
46723;SDS011;32463;48.298;11.620;2023-06-22T05:16:53;10.38;;;7.13;;
46723;SDS011;32463;48.298;11.620;2023-06-22T05:19:23;13.13;;;7.20;;
46723;SDS011;32463;48.298;11.620;2023-06-22T05:21:51;11.57;;;6.70;;
46723;SDS011;32463;48.298;11.620;2023-06-22T05:24:17;11.85;;;6.40;;
46723;SDS011;32463;48.298;11.620;2023-06-22T05:26:44;11.85;;;5.80;;
46723;SDS011;32463;48.298;11.620;2023-06-22T05:29:10;11.00;;;6.40;;
46723;SDS011;32463;48.298;11.620;2023-06-22T05:31:36;12.15;;;6.45;;
46723;SDS011;32463;48.298;11.620;2023-06-22T05:34:05;13.15;;;6.10;;
46723;SDS011;32463;48.298;11.620;2023-06-22T05:36:31;13.65;;;5.90;;
46723;SDS011;32463;48.298;11.620;2023-06-22T05:38:57;11.23;;;6.28;;
46723;SDS011;32463;48.298;11.620;2023-06-22T05:41:24;11.73;;;6.32;;
46723;SDS011;32463;48.298;11.620;2023-06-22T05:43:50;13.35;;;6.13;;
46723;SDS011;32463;48.298;11.620;2023-06-22T05:46:18;13.27;;;6.18;;
46723;SDS011;32463;48.298;11.620;2023-06-22T05:48:45;13.65;;;6.22;;
46723;SDS011;32463;48.298;11.620;2023-06-22T05:51:12;15.52;;;5.93;;
46723;SDS011;32463;48.298;11.620;2023-06-22T05:53:38;11.38;;;6.03;;
46723;SDS011;32463;48.298;11.620;2023-06-22T05:56:04;10.48;;;5.10;;
46723;SDS011;32463;48.298;11.620;2023-06-22T05:58:31;14.75;;;5.20;;
46723;SDS011;32463;48.298;11.620;2023-06-22T06:00:57;13.35;;;5.75;;
46723;SDS011;32463;48.298;11.620;2023-06-22T06:03:25;10.57;;;5.50;;
46723;SDS011;32463;48.298;11.620;2023-06-22T06:05:53;10.55;;;5.72;;
46723;SDS011;32463;48.298;11.620;2023-06-22T06:08:20;12.98;;;6.03;;
46723;SDS011;32463;48.298;11.620;2023-06-22T06:10:46;9.75;;;5.05;;
46723;SDS011;32463;48.298;11.620;2023-06-22T06:13:13;13.88;;;5.30;;
46723;SDS011;32463;48.298;11.620;2023-06-22T06:15:39;11.25;;;5.53;;
46723;SDS011;32463;48.298;11.620;2023-06-22T06:18:06;10.98;;;5.63;;
46723;SDS011;32463;48.298;11.620;2023-06-22T06:20:32;11.55;;;6.10;;
46723;SDS011;32463;48.298;11.620;2023-06-22T06:22:59;12.90;;;5.38;;
46723;SDS011;32463;48.298;11.620;2023-06-22T06:25:25;14.60;;;5.78;;
46723;SDS011;32463;48.298;11.620;2023-06-22T06:27:51;9.43;;;5.82;;
46723;SDS011;32463;48.298;11.620;2023-06-22T06:30:19;14.50;;;5.55;;
46723;SDS011;32463;48.298;11.620;2023-06-22T06:32:47;11.45;;;5.63;;
46723;SDS011;32463;48.298;11.620;2023-06-22T06:35:14;13.10;;;5.60;;
46723;SDS011;32463;48.298;11.620;2023-06-22T06:37:41;17.25;;;5.82;;
46723;SDS011;32463;48.298;11.620;2023-06-22T06:40:13;14.02;;;6.40;;
46723;SDS011;32463;48.298;11.620;2023-06-22T06:42:41;14.30;;;6.05;;
46723;SDS011;32463;48.298;11.620;2023-06-22T06:45:14;12.30;;;5.70;;
46723;SDS011;32463;48.298;11.620;2023-06-22T06:47:43;10.98;;;5.40;;
46723;SDS011;32463;48.298;11.620;2023-06-22T06:50:10;9.82;;;5.22;;
46723;SDS011;32463;48.298;11.620;2023-06-22T06:52:37;14.25;;;5.40;;
46723;SDS011;32463;48.298;11.620;2023-06-22T06:55:04;14.02;;;5.72;;
46723;SDS011;32463;48.298;11.620;2023-06-22T06:57:33;10.75;;;5.63;;
46723;SDS011;32463;48.298;11.620;2023-06-22T06:59:59;13.55;;;5.18;;
46723;SDS011;32463;48.298;11.620;2023-06-22T07:02:26;13.43;;;5.40;;
46723;SDS011;32463;48.298;11.620;2023-06-22T07:04:54;10.98;;;4.72;;
46723;SDS011;32463;48.298;11.620;2023-06-22T07:07:21;11.60;;;5.13;;
46723;SDS011;32463;48.298;11.620;2023-06-22T07:09:48;10.48;;;4.63;;
46723;SDS011;32463;48.298;11.620;2023-06-22T07:12:14;16.15;;;5.50;;
46723;SDS011;32463;48.298;11.620;2023-06-22T07:14:41;13.82;;;5.32;;
46723;SDS011;32463;48.298;11.620;2023-06-22T07:17:07;9.25;;;4.32;;
46723;SDS011;32463;48.298;11.620;2023-06-22T07:19:33;14.02;;;4.82;;
46723;SDS011;32463;48.298;11.620;2023-06-22T07:22:00;12.85;;;4.47;;
46723;SDS011;32463;48.298;11.620;2023-06-22T07:24:27;10.68;;;4.50;;
46723;SDS011;32463;48.298;11.620;2023-06-22T07:26:54;12.02;;;4.93;;
46723;SDS011;32463;48.298;11.620;2023-06-22T07:29:24;12.23;;;4.70;;
46723;SDS011;32463;48.298;11.620;2023-06-22T07:31:51;9.57;;;4.60;;
46723;SDS011;32463;48.298;11.620;2023-06-22T07:34:18;11.27;;;4.35;;
46723;SDS011;32463;48.298;11.620;2023-06-22T07:36:45;10.23;;;4.80;;
46723;SDS011;32463;48.298;11.620;2023-06-22T07:39:12;16.02;;;4.72;;
46723;SDS011;32463;48.298;11.620;2023-06-22T07:41:39;12.95;;;5.28;;
46723;SDS011;32463;48.298;11.620;2023-06-22T07:44:05;9.60;;;4.80;;
46723;SDS011;32463;48.298;11.620;2023-06-22T07:46:32;9.50;;;4.45;;
46723;SDS011;32463;48.298;11.620;2023-06-22T07:48:59;10.65;;;4.75;;
46723;SDS011;32463;48.298;11.620;2023-06-22T07:51:26;12.35;;;4.50;;
46723;SDS011;32463;48.298;11.620;2023-06-22T07:53:53;13.60;;;4.07;;
46723;SDS011;32463;48.298;11.620;2023-06-22T07:56:20;10.80;;;4.65;;
46723;SDS011;32463;48.298;11.620;2023-06-22T07:58:46;10.35;;;4.85;;
46723;SDS011;32463;48.298;11.620;2023-06-22T08:01:13;14.40;;;4.63;;
46723;SDS011;32463;48.298;11.620;2023-06-22T08:03:40;10.18;;;4.43;;
46723;SDS011;32463;48.298;11.620;2023-06-22T08:06:07;9.95;;;4.60;;
46723;SDS011;32463;48.298;11.620;2023-06-22T08:08:37;12.65;;;4.93;;
46723;SDS011;32463;48.298;11.620;2023-06-22T08:11:04;10.77;;;4.40;;
46723;SDS011;32463;48.298;11.620;2023-06-22T08:13:30;13.50;;;4.63;;
46723;SDS011;32463;48.298;11.620;2023-06-22T08:15:57;11.07;;;4.60;;
46723;SDS011;32463;48.298;11.620;2023-06-22T08:18:24;14.68;;;5.43;;
46723;SDS011;32463;48.298;11.620;2023-06-22T08:20:50;13.48;;;4.72;;
46723;SDS011;32463;48.298;11.620;2023-06-22T08:23:17;13.82;;;5.22;;
46723;SDS011;32463;48.298;11.620;2023-06-22T08:25:43;13.00;;;4.78;;
46723;SDS011;32463;48.298;11.620;2023-06-22T08:28:10;11.95;;;5.13;;
46723;SDS011;32463;48.298;11.620;2023-06-22T08:30:36;11.77;;;4.95;;
46723;SDS011;32463;48.298;11.620;2023-06-22T08:33:03;13.40;;;4.65;;
46723;SDS011;32463;48.298;11.620;2023-06-22T08:35:29;11.57;;;5.18;;
46723;SDS011;32463;48.298;11.620;2023-06-22T08:37:56;11.23;;;4.70;;
46723;SDS011;32463;48.298;11.620;2023-06-22T08:40:23;9.77;;;4.95;;
46723;SDS011;32463;48.298;11.620;2023-06-22T08:42:49;10.07;;;4.85;;
46723;SDS011;32463;48.298;11.620;2023-06-22T08:45:16;13.63;;;4.75;;
46723;SDS011;32463;48.298;11.620;2023-06-22T08:47:43;14.68;;;5.30;;
46723;SDS011;32463;48.298;11.620;2023-06-22T08:50:10;14.98;;;5.32;;
46723;SDS011;32463;48.298;11.620;2023-06-22T08:52:38;13.55;;;4.65;;
46723;SDS011;32463;48.298;11.620;2023-06-22T08:55:07;10.82;;;4.90;;
46723;SDS011;32463;48.298;11.620;2023-06-22T08:57:34;12.18;;;5.00;;
46723;SDS011;32463;48.298;11.620;2023-06-22T09:00:03;13.30;;;4.50;;
46723;SDS011;32463;48.298;11.620;2023-06-22T09:02:32;14.50;;;5.35;;
46723;SDS011;32463;48.298;11.620;2023-06-22T09:04:59;13.23;;;5.75;;
46723;SDS011;32463;48.298;11.620;2023-06-22T09:07:29;10.63;;;4.72;;
46723;SDS011;32463;48.298;11.620;2023-06-22T09:09:55;13.20;;;5.25;;
46723;SDS011;32463;48.298;11.620;2023-06-22T09:12:22;12.10;;;5.55;;
46723;SDS011;32463;48.298;11.620;2023-06-22T09:14:51;10.82;;;4.90;;
46723;SDS011;32463;48.298;11.620;2023-06-22T09:17:18;16.42;;;6.20;;
46723;SDS011;32463;48.298;11.620;2023-06-22T09:19:44;16.17;;;5.60;;
46723;SDS011;32463;48.298;11.620;2023-06-22T09:22:11;10.15;;;5.53;;
46723;SDS011;32463;48.298;11.620;2023-06-22T09:24:37;15.57;;;5.57;;
46723;SDS011;32463;48.298;11.620;2023-06-22T09:27:04;15.30;;;5.18;;
46723;SDS011;32463;48.298;11.620;2023-06-22T09:29:30;12.50;;;4.80;;
46723;SDS011;32463;48.298;11.620;2023-06-22T09:31:58;11.70;;;5.43;;
46723;SDS011;32463;48.298;11.620;2023-06-22T09:34:25;11.80;;;5.40;;
46723;SDS011;32463;48.298;11.620;2023-06-22T09:36:52;11.95;;;4.78;;
46723;SDS011;32463;48.298;11.620;2023-06-22T09:39:19;13.43;;;4.97;;
46723;SDS011;32463;48.298;11.620;2023-06-22T09:41:45;10.18;;;4.50;;
46723;SDS011;32463;48.298;11.620;2023-06-22T09:44:11;12.55;;;5.13;;
46723;SDS011;32463;48.298;11.620;2023-06-22T09:46:38;13.60;;;5.15;;
46723;SDS011;32463;48.298;11.620;2023-06-22T09:49:04;13.55;;;5.18;;
46723;SDS011;32463;48.298;11.620;2023-06-22T09:51:31;13.13;;;5.45;;
46723;SDS011;32463;48.298;11.620;2023-06-22T09:53:58;14.95;;;5.05;;
46723;SDS011;32463;48.298;11.620;2023-06-22T09:56:24;13.43;;;5.43;;
46723;SDS011;32463;48.298;11.620;2023-06-22T09:58:53;16.92;;;5.40;;
46723;SDS011;32463;48.298;11.620;2023-06-22T10:01:19;17.65;;;5.30;;
46723;SDS011;32463;48.298;11.620;2023-06-22T10:03:46;17.25;;;5.15;;
46723;SDS011;32463;48.298;11.620;2023-06-22T10:06:13;18.23;;;5.18;;
46723;SDS011;32463;48.298;11.620;2023-06-22T10:08:39;14.02;;;5.43;;
46723;SDS011;32463;48.298;11.620;2023-06-22T10:11:06;16.38;;;5.38;;
46723;SDS011;32463;48.298;11.620;2023-06-22T10:13:32;14.68;;;5.53;;
46723;SDS011;32463;48.298;11.620;2023-06-22T10:15:58;16.55;;;5.53;;
46723;SDS011;32463;48.298;11.620;2023-06-22T10:18:25;17.15;;;5.72;;
46723;SDS011;32463;48.298;11.620;2023-06-22T10:20:52;16.00;;;5.32;;
46723;SDS011;32463;48.298;11.620;2023-06-22T10:23:19;12.38;;;5.35;;
46723;SDS011;32463;48.298;11.620;2023-06-22T10:25:46;16.25;;;5.13;;
46723;SDS011;32463;48.298;11.620;2023-06-22T10:28:13;12.57;;;5.15;;
46723;SDS011;32463;48.298;11.620;2023-06-22T10:30:40;12.57;;;5.28;;
46723;SDS011;32463;48.298;11.620;2023-06-22T10:33:08;20.17;;;6.28;;
46723;SDS011;32463;48.298;11.620;2023-06-22T10:35:35;12.25;;;4.93;;
46723;SDS011;32463;48.298;11.620;2023-06-22T10:38:02;13.00;;;5.25;;
46723;SDS011;32463;48.298;11.620;2023-06-22T10:40:29;15.27;;;5.70;;
46723;SDS011;32463;48.298;11.620;2023-06-22T10:42:56;11.90;;;5.72;;
46723;SDS011;32463;48.298;11.620;2023-06-22T10:45:23;12.43;;;5.70;;
46723;SDS011;32463;48.298;11.620;2023-06-22T10:47:49;13.38;;;5.10;;
46723;SDS011;32463;48.298;11.620;2023-06-22T10:50:15;12.20;;;5.00;;
46723;SDS011;32463;48.298;11.620;2023-06-22T10:52:42;15.05;;;6.57;;
46723;SDS011;32463;48.298;11.620;2023-06-22T10:55:09;15.18;;;5.35;;
46723;SDS011;32463;48.298;11.620;2023-06-22T10:57:37;15.32;;;5.47;;
46723;SDS011;32463;48.298;11.620;2023-06-22T11:00:07;16.75;;;6.07;;
46723;SDS011;32463;48.298;11.620;2023-06-22T11:02:36;15.15;;;5.22;;
46723;SDS011;32463;48.298;11.620;2023-06-22T11:05:02;12.95;;;4.85;;
46723;SDS011;32463;48.298;11.620;2023-06-22T11:07:29;19.08;;;4.88;;
46723;SDS011;32463;48.298;11.620;2023-06-22T11:09:56;15.57;;;4.97;;
46723;SDS011;32463;48.298;11.620;2023-06-22T11:12:23;17.80;;;5.70;;
46723;SDS011;32463;48.298;11.620;2023-06-22T11:14:49;14.05;;;5.25;;
46723;SDS011;32463;48.298;11.620;2023-06-22T11:17:16;19.38;;;5.90;;
46723;SDS011;32463;48.298;11.620;2023-06-22T11:19:44;16.98;;;5.78;;
46723;SDS011;32463;48.298;11.620;2023-06-22T11:22:11;17.63;;;5.10;;
46723;SDS011;32463;48.298;11.620;2023-06-22T11:24:37;15.35;;;5.18;;
46723;SDS011;32463;48.298;11.620;2023-06-22T11:27:04;17.45;;;5.65;;
46723;SDS011;32463;48.298;11.620;2023-06-22T11:29:30;13.18;;;5.03;;
46723;SDS011;32463;48.298;11.620;2023-06-22T11:31:57;13.35;;;4.75;;
46723;SDS011;32463;48.298;11.620;2023-06-22T11:34:24;13.90;;;5.50;;
46723;SDS011;32463;48.298;11.620;2023-06-22T11:36:51;15.35;;;5.50;;
46723;SDS011;32463;48.298;11.620;2023-06-22T11:39:17;11.05;;;5.20;;
46723;SDS011;32463;48.298;11.620;2023-06-22T11:41:44;20.73;;;5.65;;
46723;SDS011;32463;48.298;11.620;2023-06-22T11:44:10;13.27;;;4.93;;
46723;SDS011;32463;48.298;11.620;2023-06-22T11:46:36;15.00;;;5.28;;
46723;SDS011;32463;48.298;11.620;2023-06-22T11:49:03;13.65;;;4.80;;
46723;SDS011;32463;48.298;11.620;2023-06-22T11:51:29;19.77;;;5.57;;
46723;SDS011;32463;48.298;11.620;2023-06-22T11:53:56;14.25;;;4.90;;
46723;SDS011;32463;48.298;11.620;2023-06-22T11:56:23;19.85;;;5.15;;
46723;SDS011;32463;48.298;11.620;2023-06-22T11:58:49;15.27;;;4.63;;
46723;SDS011;32463;48.298;11.620;2023-06-22T12:01:16;17.35;;;4.97;;
46723;SDS011;32463;48.298;11.620;2023-06-22T12:03:42;17.67;;;5.32;;
46723;SDS011;32463;48.298;11.620;2023-06-22T12:06:09;12.88;;;4.70;;
46723;SDS011;32463;48.298;11.620;2023-06-22T12:08:35;15.75;;;4.53;;
46723;SDS011;32463;48.298;11.620;2023-06-22T12:11:02;11.15;;;4.68;;
46723;SDS011;32463;48.298;11.620;2023-06-22T12:13:28;17.05;;;4.95;;
46723;SDS011;32463;48.298;11.620;2023-06-22T12:15:55;14.27;;;4.82;;
46723;SDS011;32463;48.298;11.620;2023-06-22T12:18:21;18.85;;;4.90;;
46723;SDS011;32463;48.298;11.620;2023-06-22T12:20:48;13.05;;;4.72;;
46723;SDS011;32463;48.298;11.620;2023-06-22T12:23:14;16.05;;;4.75;;
46723;SDS011;32463;48.298;11.620;2023-06-22T12:25:41;18.45;;;4.90;;
46723;SDS011;32463;48.298;11.620;2023-06-22T12:28:07;14.88;;;5.05;;
46723;SDS011;32463;48.298;11.620;2023-06-22T12:30:33;15.85;;;9.00;;
46723;SDS011;32463;48.298;11.620;2023-06-22T12:33:01;14.07;;;5.45;;
46723;SDS011;32463;48.298;11.620;2023-06-22T12:35:28;14.68;;;4.68;;
46723;SDS011;32463;48.298;11.620;2023-06-22T12:37:54;14.30;;;4.82;;
46723;SDS011;32463;48.298;11.620;2023-06-22T12:40:20;14.82;;;4.53;;
46723;SDS011;32463;48.298;11.620;2023-06-22T12:42:47;15.00;;;4.90;;
46723;SDS011;32463;48.298;11.620;2023-06-22T12:45:14;13.50;;;4.60;;
46723;SDS011;32463;48.298;11.620;2023-06-22T12:47:41;11.13;;;4.43;;
46723;SDS011;32463;48.298;11.620;2023-06-22T12:50:08;17.17;;;4.70;;
46723;SDS011;32463;48.298;11.620;2023-06-22T12:52:36;16.77;;;4.97;;
46723;SDS011;32463;48.298;11.620;2023-06-22T12:55:04;13.48;;;4.78;;
46723;SDS011;32463;48.298;11.620;2023-06-22T12:57:31;14.35;;;4.57;;
46723;SDS011;32463;48.298;11.620;2023-06-22T12:59:57;17.90;;;4.90;;
46723;SDS011;32463;48.298;11.620;2023-06-22T13:02:25;20.70;;;5.20;;
46723;SDS011;32463;48.298;11.620;2023-06-22T13:04:52;17.58;;;4.97;;
46723;SDS011;32463;48.298;11.620;2023-06-22T13:07:18;17.60;;;5.00;;
46723;SDS011;32463;48.298;11.620;2023-06-22T13:09:44;15.15;;;4.85;;
46723;SDS011;32463;48.298;11.620;2023-06-22T13:12:11;20.33;;;5.20;;
46723;SDS011;32463;48.298;11.620;2023-06-22T13:14:38;14.02;;;4.90;;
46723;SDS011;32463;48.298;11.620;2023-06-22T13:17:04;18.20;;;5.25;;
46723;SDS011;32463;48.298;11.620;2023-06-22T13:19:31;14.45;;;5.15;;
46723;SDS011;32463;48.298;11.620;2023-06-22T13:21:57;17.67;;;4.80;;
46723;SDS011;32463;48.298;11.620;2023-06-22T13:24:24;16.25;;;4.70;;
46723;SDS011;32463;48.298;11.620;2023-06-22T13:26:51;12.68;;;4.80;;
46723;SDS011;32463;48.298;11.620;2023-06-22T13:29:18;23.83;;;4.72;;
46723;SDS011;32463;48.298;11.620;2023-06-22T13:31:44;14.52;;;4.70;;
46723;SDS011;32463;48.298;11.620;2023-06-22T13:34:11;15.70;;;4.70;;
46723;SDS011;32463;48.298;11.620;2023-06-22T13:36:37;14.70;;;4.95;;
46723;SDS011;32463;48.298;11.620;2023-06-22T13:39:04;22.10;;;4.90;;
46723;SDS011;32463;48.298;11.620;2023-06-22T13:41:30;22.15;;;6.93;;
46723;SDS011;32463;48.298;11.620;2023-06-22T13:43:57;13.18;;;4.45;;
46723;SDS011;32463;48.298;11.620;2023-06-22T13:46:23;16.38;;;4.97;;
46723;SDS011;32463;48.298;11.620;2023-06-22T13:48:50;20.77;;;5.57;;
46723;SDS011;32463;48.298;11.620;2023-06-22T13:51:16;15.45;;;4.85;;
46723;SDS011;32463;48.298;11.620;2023-06-22T13:53:43;15.80;;;4.82;;
46723;SDS011;32463;48.298;11.620;2023-06-22T13:56:09;14.57;;;4.97;;
46723;SDS011;32463;48.298;11.620;2023-06-22T13:58:35;16.08;;;4.68;;
46723;SDS011;32463;48.298;11.620;2023-06-22T14:01:02;15.23;;;4.40;;
46723;SDS011;32463;48.298;11.620;2023-06-22T14:03:29;16.05;;;4.68;;
46723;SDS011;32463;48.298;11.620;2023-06-22T14:05:55;20.25;;;5.05;;
46723;SDS011;32463;48.298;11.620;2023-06-22T14:08:23;11.68;;;4.38;;
46723;SDS011;32463;48.298;11.620;2023-06-22T14:10:52;12.30;;;4.55;;
46723;SDS011;32463;48.298;11.620;2023-06-22T14:13:19;26.60;;;5.28;;
46723;SDS011;32463;48.298;11.620;2023-06-22T14:15:46;17.13;;;4.78;;
46723;SDS011;32463;48.298;11.620;2023-06-22T14:18:13;14.80;;;4.88;;
46723;SDS011;32463;48.298;11.620;2023-06-22T14:20:40;17.63;;;5.20;;
46723;SDS011;32463;48.298;11.620;2023-06-22T14:23:07;16.33;;;4.30;;
46723;SDS011;32463;48.298;11.620;2023-06-22T14:25:33;12.93;;;4.50;;
46723;SDS011;32463;48.298;11.620;2023-06-22T14:28:00;14.20;;;4.90;;
46723;SDS011;32463;48.298;11.620;2023-06-22T14:30:26;15.75;;;5.22;;
46723;SDS011;32463;48.298;11.620;2023-06-22T14:32:52;15.07;;;4.55;;